createdAt,value
2019-01-18T00:00:42.618Z,3.60
2019-01-18T00:03:11.592Z,4.10
2019-01-18T00:05:40.609Z,4.00
2019-01-18T00:08:09.705Z,3.70
2019-01-18T00:10:38.739Z,3.70
2019-01-18T00:13:07.764Z,4.00
2019-01-18T00:15:36.876Z,4.10
2019-01-18T00:18:06.013Z,3.70
2019-01-18T00:20:35.052Z,3.40
2019-01-18T00:23:04.249Z,3.50
2019-01-18T00:25:33.574Z,3.40
2019-01-18T00:28:02.567Z,3.60
2019-01-18T00:30:31.513Z,3.60
2019-01-18T00:33:00.539Z,3.40
2019-01-18T00:35:29.645Z,3.20
2019-01-18T00:37:58.617Z,3.30
2019-01-18T00:40:27.716Z,3.50
2019-01-18T00:42:56.809Z,3.80
2019-01-18T00:45:25.899Z,3.80
2019-01-18T00:47:54.837Z,3.70
2019-01-18T00:50:23.935Z,3.60
2019-01-18T00:52:52.862Z,3.70
2019-01-18T00:55:22.003Z,3.80
2019-01-18T00:57:51.107Z,4.00
2019-01-18T01:00:25.707Z,4.10
2019-01-18T01:02:54.783Z,4.30
2019-01-18T01:05:24.073Z,4.10
2019-01-18T01:07:53.170Z,4.10
2019-01-18T01:10:22.358Z,4.10
2019-01-18T01:12:51.533Z,3.80
2019-01-18T01:15:20.790Z,3.40
2019-01-18T01:17:49.868Z,3.00
2019-01-18T01:20:21.163Z,2.60
2019-01-18T01:22:50.269Z,2.00
2019-01-18T01:25:19.530Z,1.90
2019-01-18T01:27:49.099Z,1.50
2019-01-18T01:30:20.207Z,1.30
2019-01-18T01:32:49.318Z,1.30
2019-01-18T01:35:18.814Z,1.20
2019-01-18T01:37:47.960Z,1.10
2019-01-18T01:40:27.686Z,0.90
2019-01-18T01:42:56.860Z,0.70
2019-01-18T01:45:26.109Z,0.70
2019-01-18T01:47:55.424Z,0.80
2019-01-18T01:50:26.103Z,0.80
2019-01-18T01:52:55.876Z,0.80
2019-01-18T01:55:24.989Z,0.70
2019-01-18T01:57:54.044Z,0.70
2019-01-18T02:00:27.729Z,0.60
2019-01-18T02:02:57.185Z,0.70
2019-01-18T02:05:26.290Z,0.70
2019-01-18T02:07:55.315Z,0.40
2019-01-18T02:10:24.406Z,0.40
2019-01-18T02:12:53.486Z,0.30
2019-01-18T02:15:24.630Z,0.30
2019-01-18T02:17:53.736Z,0.30
2019-01-18T02:20:23.514Z,0.30
2019-01-18T02:22:52.894Z,0.30
2019-01-18T02:25:22.021Z,0.30
2019-01-18T02:27:51.201Z,0.30
2019-01-18T02:30:25.730Z,0.40
2019-01-18T02:32:55.042Z,0.50
2019-01-18T02:35:24.155Z,0.50
2019-01-18T02:37:53.253Z,0.60
2019-01-18T02:40:22.643Z,0.40
2019-01-18T02:42:51.677Z,0.30
2019-01-18T02:45:21.902Z,0.20
2019-01-18T02:47:51.117Z,0.20
2019-01-18T02:50:46.096Z,0.40
2019-01-18T02:53:15.076Z,0.50
2019-01-18T02:55:44.163Z,0.30
2019-01-18T02:58:13.099Z,0.20
2019-01-18T03:00:42.057Z,0.00
2019-01-18T03:03:11.069Z,0.00
2019-01-18T03:05:40.033Z,-0.10
2019-01-18T03:08:09.046Z,-0.10
2019-01-18T03:10:38.127Z,0.00
2019-01-18T03:13:07.198Z,0.00
2019-01-18T03:15:36.253Z,0.20
2019-01-18T03:18:05.342Z,0.30
2019-01-18T03:20:34.352Z,0.20
2019-01-18T03:23:03.296Z,0.20
2019-01-18T03:25:32.398Z,0.20
2019-01-18T03:28:01.390Z,0.10
2019-01-18T03:30:30.400Z,0.20
2019-01-18T03:32:59.434Z,0.40
2019-01-18T03:35:28.448Z,0.60
2019-01-18T03:37:57.485Z,0.40
2019-01-18T03:40:26.512Z,0.20
2019-01-18T03:42:55.615Z,0.20
2019-01-18T03:45:24.707Z,0.20
2019-01-18T03:47:53.793Z,0.30
2019-01-18T03:50:27.027Z,0.60
2019-01-18T03:52:56.141Z,0.80
2019-01-18T03:55:25.288Z,0.90
2019-01-18T03:57:54.400Z,1.20
2019-01-18T04:00:28.418Z,1.20
2019-01-18T04:02:57.498Z,1.30
2019-01-18T04:05:26.746Z,1.20
2019-01-18T04:07:55.882Z,1.20
2019-01-18T04:10:25.013Z,1.30
2019-01-18T04:12:54.162Z,1.40
2019-01-18T04:15:24.209Z,1.30
2019-01-18T04:17:53.352Z,1.20
2019-01-18T04:20:22.807Z,1.00
2019-01-18T04:22:52.227Z,0.90
2019-01-18T04:25:28.767Z,1.00
2019-01-18T04:27:57.933Z,1.10
2019-01-18T04:30:33.402Z,0.90
2019-01-18T04:32:57.627Z,1.00
2019-01-18T04:35:26.576Z,0.70
2019-01-18T04:37:55.654Z,0.70
2019-01-18T04:40:26.005Z,0.60
2019-01-18T04:42:56.151Z,0.50
2019-01-18T04:45:25.256Z,0.40
2019-01-18T04:47:54.273Z,0.40
2019-01-18T04:50:24.744Z,0.40
2019-01-18T04:52:53.744Z,0.30
2019-01-18T04:55:22.832Z,0.30
2019-01-18T04:57:52.118Z,0.30
2019-01-18T05:00:29.204Z,0.30
2019-01-18T05:02:58.311Z,0.20
2019-01-18T05:05:28.201Z,0.20
2019-01-18T05:07:57.290Z,0.20
2019-01-18T05:10:27.816Z,0.20
2019-01-18T05:12:56.976Z,0.10
2019-01-18T05:15:28.154Z,0.10
2019-01-18T05:17:57.187Z,0.10
2019-01-18T05:20:26.233Z,0.10
2019-01-18T05:22:55.286Z,0.20
2019-01-18T05:25:24.434Z,0.20
2019-01-18T05:27:53.507Z,0.20
2019-01-18T05:30:27.329Z,0.20
2019-01-18T05:32:56.454Z,0.10
2019-01-18T05:35:25.653Z,0.20
2019-01-18T05:37:54.745Z,0.30
2019-01-18T05:40:23.737Z,0.20
2019-01-18T05:42:53.113Z,0.30
2019-01-18T05:45:23.179Z,0.20
2019-01-18T05:47:52.786Z,0.10
2019-01-18T05:50:24.086Z,0.10
2019-01-18T05:52:53.453Z,0.20
2019-01-18T05:55:22.882Z,0.30
2019-01-18T05:57:52.448Z,0.30
2019-01-18T06:00:55.130Z,0.40
2019-01-18T06:03:20.588Z,0.30
2019-01-18T06:05:50.097Z,0.60
2019-01-18T06:08:19.623Z,0.60
2019-01-18T06:10:51.358Z,0.70
2019-01-18T06:13:26.507Z,0.70
2019-01-18T06:15:56.190Z,0.60
2019-01-18T06:18:25.725Z,0.40
2019-01-18T06:20:55.286Z,0.20
2019-01-18T06:23:27.759Z,0.20
2019-01-18T06:25:57.316Z,0.10
2019-01-18T06:28:26.703Z,0.10
2019-01-18T06:31:01.727Z,0.10
2019-01-18T06:33:27.782Z,0.20
2019-01-18T06:35:57.256Z,0.30
2019-01-18T06:38:33.122Z,0.10
2019-01-18T06:41:12.498Z,0.00
2019-01-18T06:43:42.222Z,-0.20
2019-01-18T06:46:11.749Z,-0.20
2019-01-18T06:48:41.991Z,-0.30
2019-01-18T06:51:11.495Z,-0.40
2019-01-18T06:53:41.001Z,-0.50
2019-01-18T06:56:10.524Z,-0.10
2019-01-18T06:58:40.347Z,0.00
2019-01-18T07:01:09.824Z,-0.10
2019-01-18T07:03:39.296Z,-0.20
2019-01-18T07:06:10.738Z,-0.20
2019-01-18T07:08:40.396Z,-0.50
2019-01-18T07:11:10.370Z,-0.60
2019-01-18T07:13:43.215Z,-0.50
2019-01-18T07:16:12.674Z,-0.40
2019-01-18T07:18:42.167Z,-0.30
2019-01-18T07:21:11.764Z,-0.40
2019-01-18T07:23:41.260Z,-0.40
2019-01-18T07:26:12.357Z,0.00
2019-01-18T07:28:41.905Z,-0.20
2019-01-18T07:31:15.096Z,-0.20
2019-01-18T07:33:42.588Z,-0.40
2019-01-18T07:36:12.127Z,-0.30
2019-01-18T07:38:41.692Z,-0.50
2019-01-18T07:41:11.138Z,-0.30
2019-01-18T07:43:40.627Z,-0.20
2019-01-18T07:46:10.062Z,-0.40
2019-01-18T07:48:39.465Z,-0.30
2019-01-18T07:51:08.908Z,0.00
2019-01-18T07:53:38.248Z,-0.20
2019-01-18T07:56:07.720Z,-0.30
2019-01-18T07:58:37.167Z,-0.30
2019-01-18T08:01:07.112Z,-0.30
2019-01-18T08:03:36.768Z,-0.10
2019-01-18T08:06:06.102Z,0.10
2019-01-18T08:08:35.563Z,0.40
2019-01-18T08:11:05.262Z,0.40
2019-01-18T08:13:34.573Z,0.60
2019-01-18T08:16:04.129Z,0.80
2019-01-18T08:18:33.484Z,0.90
2019-01-18T08:21:02.902Z,0.80
2019-01-18T08:24:25.434Z,0.80
2019-01-18T08:27:27.448Z,0.80
2019-01-18T08:34:10.992Z,1.80
2019-01-18T08:36:42.183Z,1.50
2019-01-18T08:39:45.616Z,1.30
2019-01-18T08:46:12.691Z,0.70
2019-01-18T08:51:56.223Z,0.40
2019-01-18T08:57:45.046Z,0.80
2019-01-18T09:05:08.779Z,1.20
2019-01-18T09:07:48.829Z,0.80
2019-01-18T09:10:29.251Z,1.40
2019-01-18T09:13:29.070Z,1.90
2019-01-18T09:15:59.689Z,1.90
2019-01-18T09:18:29.713Z,1.60
2019-01-18T09:21:01.939Z,1.70
2019-01-18T09:23:32.103Z,1.70
2019-01-18T09:26:03.325Z,1.90
2019-01-18T09:28:33.186Z,2.40
2019-01-18T09:31:03.160Z,2.30
2019-01-18T09:33:32.828Z,2.40
2019-01-18T09:36:02.776Z,2.40
2019-01-18T09:38:32.864Z,2.30
2019-01-18T09:41:02.510Z,1.80
2019-01-18T09:43:32.149Z,1.70
2019-01-18T09:46:01.824Z,1.60
2019-01-18T09:48:31.525Z,1.80
2019-01-18T09:51:01.321Z,1.70
2019-01-18T09:53:31.023Z,1.70
2019-01-18T09:56:01.047Z,1.60
2019-01-18T09:58:30.752Z,1.60
2019-01-18T10:01:00.593Z,2.00
2019-01-18T10:03:30.169Z,2.30
2019-01-18T10:05:59.687Z,2.90
2019-01-18T10:08:29.389Z,3.20
2019-01-18T10:10:59.409Z,3.30
2019-01-18T10:13:29.104Z,2.80
2019-01-18T10:15:58.697Z,2.50
2019-01-18T10:18:28.343Z,2.50
2019-01-18T10:20:58.140Z,2.60
2019-01-18T10:23:27.755Z,2.20
2019-01-18T10:25:57.328Z,1.90
2019-01-18T10:28:26.965Z,1.80
2019-01-18T10:30:57.907Z,2.30
2019-01-18T10:33:27.652Z,2.80
2019-01-18T10:35:57.299Z,2.50
2019-01-18T10:38:27.169Z,2.80
2019-01-18T10:40:57.068Z,3.20
2019-01-18T10:43:26.789Z,3.70
2019-01-18T10:45:56.834Z,3.90
2019-01-18T10:48:26.696Z,4.10
2019-01-18T10:50:56.212Z,4.00
2019-01-18T10:53:26.301Z,3.90
2019-01-18T10:55:56.423Z,3.70
2019-01-18T10:58:26.065Z,3.60
2019-01-18T11:00:55.899Z,3.70
2019-01-18T11:03:25.793Z,4.00
2019-01-18T11:05:55.706Z,4.10
2019-01-18T11:08:25.731Z,3.80
2019-01-18T11:10:55.968Z,3.40
2019-01-18T11:13:26.007Z,3.20
2019-01-18T11:15:56.050Z,3.20
2019-01-18T11:18:26.068Z,3.40
2019-01-18T11:21:11.071Z,3.30
2019-01-18T11:23:40.774Z,3.40
2019-01-18T11:26:10.422Z,4.00
2019-01-18T11:28:40.240Z,4.30
2019-01-18T11:31:10.152Z,3.60
2019-01-18T11:33:39.826Z,3.70
2019-01-18T11:36:09.720Z,4.00
2019-01-18T11:38:39.679Z,4.30
2019-01-18T11:41:10.218Z,4.30
2019-01-18T11:43:40.301Z,4.50
2019-01-18T11:46:10.055Z,4.50
2019-01-18T11:48:39.937Z,4.80
2019-01-18T11:51:09.845Z,5.00
2019-01-18T11:53:40.855Z,5.30
2019-01-18T11:56:10.610Z,5.30
2019-01-18T11:58:40.444Z,5.00
2019-01-18T12:01:10.278Z,5.10
2019-01-18T12:03:40.149Z,5.10
2019-01-18T12:06:09.944Z,4.90
2019-01-18T12:08:41.935Z,4.70
2019-01-18T12:11:12.841Z,4.70
2019-01-18T12:13:42.491Z,4.70
2019-01-18T12:16:12.484Z,4.90
2019-01-18T12:18:42.395Z,5.00
2019-01-18T12:21:11.956Z,5.10
2019-01-18T12:23:41.635Z,5.10
2019-01-18T12:26:11.543Z,5.10
2019-01-18T12:28:41.261Z,4.80
2019-01-18T12:31:16.071Z,4.50
2019-01-18T12:33:45.750Z,4.60
2019-01-18T12:36:16.161Z,4.60
2019-01-18T12:38:46.062Z,4.60
2019-01-18T12:41:17.396Z,4.10
2019-01-18T12:43:47.487Z,4.00
2019-01-18T12:46:17.372Z,3.90
2019-01-18T12:48:47.537Z,4.30
2019-01-18T12:51:20.963Z,4.20
2019-01-18T12:53:54.618Z,4.00
2019-01-18T12:56:26.100Z,4.00
2019-01-18T12:58:56.729Z,4.20
2019-01-18T13:01:26.659Z,4.40
2019-01-18T13:03:56.716Z,4.70
2019-01-18T13:06:26.554Z,4.60
2019-01-18T13:08:56.624Z,4.70
2019-01-18T13:11:26.588Z,4.50
2019-01-18T13:13:56.505Z,4.80
2019-01-18T13:16:41.821Z,5.20
2019-01-18T13:19:14.510Z,5.10
2019-01-18T13:21:44.886Z,4.60
2019-01-18T13:24:14.958Z,4.80
2019-01-18T13:26:44.864Z,4.70
2019-01-18T13:29:15.044Z,4.20
2019-01-18T13:31:44.971Z,4.20
2019-01-18T13:34:14.883Z,4.60
2019-01-18T13:36:44.759Z,4.50
2019-01-18T13:39:14.882Z,4.60
2019-01-18T13:41:44.858Z,4.30
2019-01-18T13:44:15.185Z,4.30
2019-01-18T13:46:45.405Z,4.60
2019-01-18T13:49:15.363Z,4.80
2019-01-18T13:51:46.289Z,4.90
2019-01-18T13:54:16.395Z,4.90
2019-01-18T13:56:46.261Z,4.80
2019-01-18T13:59:16.181Z,4.60
2019-01-18T14:01:46.110Z,4.00
2019-01-18T14:04:15.989Z,4.20
2019-01-18T14:06:46.230Z,4.60
2019-01-18T14:09:15.868Z,4.50
2019-01-18T14:11:45.781Z,4.70
2019-01-18T14:14:15.537Z,4.70
2019-01-18T14:16:45.288Z,4.50
2019-01-18T14:19:14.985Z,4.60
2019-01-18T14:21:45.131Z,4.70
2019-01-18T14:26:43.715Z,4.50
2019-01-18T14:29:12.980Z,4.40
2019-01-18T14:31:42.505Z,4.40
2019-01-18T14:34:11.445Z,4.40
2019-01-18T14:36:40.543Z,4.60
2019-01-18T14:39:11.593Z,4.60
2019-01-18T14:41:40.661Z,4.40
2019-01-18T14:44:09.685Z,4.60
2019-01-18T14:46:38.757Z,4.40
2019-01-18T14:49:07.900Z,4.30
2019-01-18T14:51:36.988Z,4.40
2019-01-18T14:54:06.092Z,4.20
2019-01-18T14:56:35.254Z,4.20
2019-01-18T14:59:04.634Z,4.30
2019-01-18T15:01:33.591Z,4.80
2019-01-18T15:04:02.632Z,4.80
2019-01-18T15:06:31.657Z,4.90
2019-01-18T15:09:00.745Z,5.20
2019-01-18T15:11:29.845Z,5.00
2019-01-18T15:13:58.975Z,5.00
2019-01-18T15:16:28.006Z,4.40
2019-01-18T15:18:57.138Z,4.00
2019-01-18T15:21:26.305Z,3.60
2019-01-18T15:23:55.421Z,3.60
2019-01-18T15:26:24.384Z,3.60
2019-01-18T15:28:53.412Z,3.90
2019-01-18T15:31:22.536Z,4.10
2019-01-18T15:33:51.549Z,4.20
2019-01-18T15:36:20.545Z,4.20
2019-01-18T15:38:49.534Z,4.10
2019-01-18T15:41:18.625Z,4.10
2019-01-18T15:43:47.567Z,4.40
2019-01-18T15:46:16.685Z,4.60
2019-01-18T15:48:45.801Z,4.50
2019-01-18T15:51:14.902Z,4.40
2019-01-18T15:53:43.858Z,4.40
2019-01-18T15:56:12.949Z,4.60
2019-01-18T15:58:41.903Z,4.70
2019-01-18T16:01:10.961Z,4.80
2019-01-18T16:03:40.051Z,5.00
2019-01-18T16:06:09.162Z,5.20
2019-01-18T16:08:38.275Z,4.90
2019-01-18T16:11:07.377Z,4.80
2019-01-18T16:13:36.443Z,4.80
2019-01-18T16:16:46.095Z,5.00
2019-01-18T16:19:15.168Z,4.90
2019-01-18T16:21:44.285Z,5.00
2019-01-18T16:24:13.365Z,4.90
2019-01-18T16:26:42.499Z,5.10
2019-01-18T16:29:11.579Z,4.80
2019-01-18T16:31:40.594Z,4.60
2019-01-18T16:34:09.539Z,4.10
2019-01-18T16:36:38.573Z,4.40
2019-01-18T16:39:09.952Z,4.90
2019-01-18T16:41:39.093Z,4.70
2019-01-18T16:44:08.224Z,4.60
2019-01-18T16:46:37.436Z,4.60
2019-01-18T16:49:06.441Z,4.50
2019-01-18T16:51:35.484Z,4.60
2019-01-18T16:54:04.809Z,4.70
2019-01-18T16:56:33.820Z,4.70
2019-01-18T16:59:03.190Z,5.00
2019-01-18T17:01:32.489Z,4.60
2019-01-18T17:04:01.851Z,4.40
2019-01-18T17:06:31.159Z,4.60
2019-01-18T17:09:00.341Z,4.60
2019-01-18T17:11:29.688Z,4.40
2019-01-18T17:13:58.755Z,4.20
2019-01-18T17:16:28.036Z,4.00
2019-01-18T17:18:57.488Z,4.10
2019-01-18T17:21:26.666Z,4.30
2019-01-18T17:23:55.725Z,4.50
2019-01-18T17:26:24.905Z,3.90
2019-01-18T17:28:54.053Z,4.00
2019-01-18T17:31:23.205Z,4.10
2019-01-18T17:33:52.338Z,4.00
2019-01-18T17:36:34.229Z,4.30
2019-01-18T17:39:27.162Z,4.30
2019-01-18T17:42:19.222Z,4.20
2019-01-18T17:45:25.042Z,3.80
2019-01-18T17:48:14.308Z,3.80
2019-01-18T17:51:38.286Z,3.90
2019-01-18T17:54:54.879Z,4.00
2019-01-18T17:57:36.394Z,3.80
2019-01-18T18:00:31.050Z,4.00
2019-01-18T18:03:36.570Z,4.40
2019-01-18T18:06:50.748Z,4.20
2019-01-18T18:09:31.722Z,4.80
2019-01-18T18:12:43.962Z,4.90
2019-01-18T18:15:34.228Z,5.00
2019-01-18T18:18:30.987Z,4.80
2019-01-18T18:21:21.617Z,4.90
2019-01-18T18:24:18.343Z,5.00
2019-01-18T18:27:07.622Z,5.10
2019-01-18T18:30:07.400Z,5.10
2019-01-18T18:33:01.743Z,5.00
2019-01-18T18:36:15.425Z,4.80
2019-01-18T18:39:30.992Z,4.40
2019-01-18T18:42:18.034Z,4.20
2019-01-18T18:45:24.209Z,4.20
2019-01-18T18:48:39.907Z,4.40
2019-01-18T18:51:32.106Z,4.60
2019-01-18T18:54:20.409Z,4.90
2019-01-18T18:57:22.166Z,5.00
2019-01-18T19:00:15.505Z,5.00
2019-01-18T19:03:14.148Z,5.00
2019-01-18T19:06:12.202Z,4.80
2019-01-18T19:09:30.922Z,5.00
2019-01-18T19:12:33.943Z,4.90
2019-01-18T19:15:36.203Z,5.30
2019-01-18T19:18:34.657Z,4.90
2019-01-18T19:21:30.361Z,4.90
2019-01-18T19:24:25.997Z,5.10
2019-01-18T19:27:36.375Z,5.10
2019-01-18T19:30:35.034Z,4.80
2019-01-18T19:33:48.705Z,5.00
2019-01-18T19:36:56.762Z,4.70
2019-01-18T19:40:00.487Z,4.70
2019-01-18T19:43:23.022Z,4.70
2019-01-18T19:46:18.993Z,4.50
2019-01-18T19:49:34.256Z,4.90
2019-01-18T19:52:52.853Z,4.50
2019-01-18T19:55:50.906Z,4.40
2019-01-18T19:59:12.764Z,4.40
2019-01-18T20:02:37.771Z,4.30
2019-01-18T20:05:31.374Z,4.40
2019-01-18T20:08:42.837Z,4.60
2019-01-18T20:11:51.551Z,4.90
2019-01-18T20:14:58.538Z,4.80
2019-01-18T20:17:52.205Z,4.60
2019-01-18T20:21:00.804Z,4.20
2019-01-18T20:31:22.227Z,4.30
2019-01-18T20:34:34.997Z,4.60
2019-01-18T20:37:37.604Z,4.80
2019-01-18T20:40:37.888Z,4.70
2019-01-18T20:43:48.041Z,4.90
2019-01-18T20:47:05.961Z,5.10
2019-01-18T20:50:19.396Z,5.10
2019-01-18T20:53:33.502Z,5.10
2019-01-18T20:56:45.577Z,4.30
2019-01-18T20:59:35.696Z,3.60
2019-01-18T21:03:04.469Z,3.20
2019-01-18T21:06:18.543Z,2.90
2019-01-18T21:09:31.393Z,2.70
2019-01-18T21:12:26.903Z,2.70
2019-01-18T21:15:07.797Z,2.60
2019-01-18T21:18:07.346Z,2.60
2019-01-18T21:21:32.054Z,2.50
2019-01-18T21:24:48.921Z,2.40
2019-01-18T21:27:42.615Z,2.40
2019-01-18T21:30:48.551Z,2.30
2019-01-18T21:34:07.051Z,2.10
2019-01-18T21:37:18.702Z,2.10
2019-01-18T21:40:11.668Z,2.10
2019-01-18T21:43:31.240Z,2.00
2019-01-18T21:46:35.666Z,2.00
2019-01-18T21:49:27.360Z,1.90
2019-01-18T21:52:45.379Z,1.80
2019-01-18T21:55:39.504Z,1.60
2019-01-18T21:58:39.372Z,1.50
2019-01-18T22:01:49.920Z,1.50
2019-01-18T22:05:06.567Z,1.50
2019-01-18T22:08:12.896Z,1.50
2019-01-18T22:11:11.894Z,1.60
2019-01-18T22:14:05.158Z,1.60
2019-01-18T22:16:57.243Z,1.60
2019-01-18T22:20:22.131Z,1.60
2019-01-18T22:23:17.340Z,1.70
2019-01-18T22:26:32.253Z,1.70
2019-01-18T22:29:37.490Z,1.70
2019-01-18T22:32:46.066Z,1.70
2019-01-18T22:35:58.439Z,1.70
2019-01-18T22:38:53.343Z,1.70
2019-01-18T22:42:00.569Z,1.80
2019-01-18T22:45:18.809Z,1.80
2019-01-18T22:48:26.892Z,1.90
2019-01-18T22:51:34.778Z,1.90
2019-01-18T22:54:46.860Z,1.80
2019-01-18T22:57:55.582Z,1.80
2019-01-18T23:01:24.013Z,1.80
2019-01-18T23:04:29.370Z,1.60
2019-01-18T23:07:43.229Z,1.50
2019-01-18T23:10:45.414Z,1.50
2019-01-18T23:13:50.678Z,1.50
2019-01-18T23:17:07.236Z,1.50
2019-01-18T23:20:16.447Z,1.50
2019-01-18T23:23:14.095Z,1.50
2019-01-18T23:25:56.398Z,1.40
2019-01-18T23:29:18.480Z,1.30
2019-01-18T23:32:39.792Z,1.30
2019-01-18T23:36:02.082Z,1.30
2019-01-18T23:39:30.687Z,1.30
2019-01-18T23:42:59.806Z,1.30
2019-01-18T23:46:24.681Z,1.40
2019-01-18T23:49:33.395Z,1.50
2019-01-18T23:52:23.358Z,1.50
2019-01-18T23:55:33.145Z,1.50
2019-01-18T23:58:38.257Z,1.50
